Airfield :
LOGIN :

Register | Disclaimer

   EN    FR    IT 

 










Legend :    VFR   Marginal VFR   IFR   Intensive IFR   Very Intensive IFR
Visi :
Ceiling :
>= 8 km
>= 3000ft
5 to 8 km
1000 to 3000 ft
1500m to 5 km
500 to 1000 ft
800 to 1500m
200 to 500 ft
< 800m
< 200 ft
Symbols :   Thunderstorms  Fog  Heavy snow  Heavy precipitations  Wind > 20 kt
SIGMETs :     Misc.  Thunderstorms  Icing  Turbulence  Mountain Waves  Volcanic Ashes






- Airport Elevation : 144 ft
- IATA code : PGF


LFMP - Perpignan

CURRENT METAR :
  • 200130Z AUTO 29007KT 9999 FEW080 21/15 Q1013

EXPIRED METARs :
  • 200100Z AUTO 29008KT 260V320 9999 BKN082/// BKN130/// ///TCU 22/15 Q1013
  • 200030Z AUTO 33008KT 9999 FEW039/// BKN060/// BKN078/// ///TCU 22/16 Q1013
  • 200000Z AUTO 32008KT 9999 BKN033/// OVC041/// ///CB 23/18 Q1013
  • 192330Z AUTO 31004KT 9999 BKN032/// BKN039/// BKN052/// ///CB 22/19 Q1013
  • 192300Z AUTO 34006KT 310V020 9999 FEW005/// SCT036/// ///CB 22/19 Q1012

TAF AMD TAF LFMP
Valid from the 19 at 15:00 until the 20 at 15:00 UTC


191542Z 1915/2015 14012KT CAVOK
TEMPO 1915/1918 17020G30KT FEW020CB
BECMG 1918/1921 32012KT
PROB30
TEMPO 1922/2002 VRB15G25KT SHRA SCT020TCU
BECMG 2002/2004 VRB04KT
ATIS : +33 4 68 63 75 12



MET'MAP, your aeronautical weather chart ! - Copyright ORBIFLY December 2007 - Disclaimer

ORBIFLY MET'MAP TEAM :

Programming & Development : Alexandra Zaïnal
Concept & original design : Baudouin d'Aumeries
Assistance for programming : Marc-Olivier Méhu
Technical & hardware support : Manuel Goepfert

Contact : metmap@orbifly.com




SOURCES & CREDITS :

   NOAA